Terminal Aerodrome Forecast
Issued by NWS

Home | Current Version | Previous Version | Text Only | Print | Product List | Glossary On
Versions: 1 2 3 4 5 6 7 8 9 10 11 12 13 14 15 16 17 18 19 20 21 22 23 24 25 26 27 28 29 30 31 32
000
FTUS45 KCYS 022200 AAB
TAFLAR
TAF AMD
KLAR 022200Z 0222/0318 VRB06KT 6SM -SN OVC035
      TEMPO 0222/0224 3SM -SN BR OVC025
     FM030200 14007KT P6SM BKN025
     FM030600 22007KT P6SM BKN050
     FM031400 24015KT P6SM SCT140=

USA.gov is the U.S. government's official web portal to all federal, state and local government web resources and services.